sensor_id;sensor_type;location;lat;lon;timestamp;pressure;altitude;pressure_sealevel;temperature
70050;BMP180;57391;51.306;22.680;2023-04-01T00:00:54;97834.80;;;10.30
70050;BMP180;57391;51.306;22.680;2023-04-01T00:03:23;97832.20;;;10.30
70050;BMP180;57391;51.306;22.680;2023-04-01T00:05:53;97837.40;;;10.20
70050;BMP180;57391;51.306;22.680;2023-04-01T00:08:21;97834.00;;;10.10
70050;BMP180;57391;51.306;22.680;2023-04-01T00:10:48;97837.00;;;10.10
70050;BMP180;57391;51.306;22.680;2023-04-01T00:13:15;97841.80;;;10.10
70050;BMP180;57391;51.306;22.680;2023-04-01T00:15:44;97840.60;;;10.10
70050;BMP180;57391;51.306;22.680;2023-04-01T00:18:12;97840.40;;;10.04
70050;BMP180;57391;51.306;22.680;2023-04-01T00:20:47;97838.20;;;10.00
70050;BMP180;57391;51.306;22.680;2023-04-01T00:23:15;97842.40;;;10.00
70050;BMP180;57391;51.306;22.680;2023-04-01T00:25:44;97842.20;;;10.00
70050;BMP180;57391;51.306;22.680;2023-04-01T00:28:19;97840.00;;;9.94
70050;BMP180;57391;51.306;22.680;2023-04-01T00:30:47;97834.20;;;9.90
70050;BMP180;57391;51.306;22.680;2023-04-01T00:33:15;97823.40;;;9.90
70050;BMP180;57391;51.306;22.680;2023-04-01T00:35:44;97826.60;;;9.84
70050;BMP180;57391;51.306;22.680;2023-04-01T00:38:12;97828.60;;;9.80
70050;BMP180;57391;51.306;22.680;2023-04-01T00:40:43;97826.40;;;9.80
70050;BMP180;57391;51.306;22.680;2023-04-01T00:43:19;97830.20;;;9.74
70050;BMP180;57391;51.306;22.680;2023-04-01T00:45:49;97835.80;;;9.70
70050;BMP180;57391;51.306;22.680;2023-04-01T00:48:22;97829.00;;;9.66
70050;BMP180;57391;51.306;22.680;2023-04-01T00:51:08;97828.40;;;9.60
70050;BMP180;57391;51.306;22.680;2023-04-01T00:53:41;97820.80;;;9.60
70050;BMP180;57391;51.306;22.680;2023-04-01T00:56:40;97815.20;;;9.50
70050;BMP180;57391;51.306;22.680;2023-04-01T00:59:32;97814.00;;;9.50
70050;BMP180;57391;51.306;22.680;2023-04-01T01:02:29;97818.00;;;9.50
70050;BMP180;57391;51.306;22.680;2023-04-01T01:04:58;97817.80;;;9.40
70050;BMP180;57391;51.306;22.680;2023-04-01T01:10:44;97823.40;;;9.32
70050;BMP180;57391;51.306;22.680;2023-04-01T01:14:09;97816.40;;;9.30
70050;BMP180;57391;51.306;22.680;2023-04-01T01:16:54;97807.80;;;9.30
70050;BMP180;57391;51.306;22.680;2023-04-01T01:19:52;97802.40;;;9.28
70050;BMP180;57391;51.306;22.680;2023-04-01T01:28:44;97780.80;;;9.20
70050;BMP180;57391;51.306;22.680;2023-04-01T01:31:34;97784.40;;;9.20
70050;BMP180;57391;51.306;22.680;2023-04-01T01:36:33;97778.20;;;9.20
70050;BMP180;57391;51.306;22.680;2023-04-01T01:39:06;97779.00;;;9.20
70050;BMP180;57391;51.306;22.680;2023-04-01T01:41:37;97778.20;;;9.20
70050;BMP180;57391;51.306;22.680;2023-04-01T01:44:11;97774.00;;;9.18
70050;BMP180;57391;51.306;22.680;2023-04-01T01:46:41;97772.80;;;9.18
70050;BMP180;57391;51.306;22.680;2023-04-01T01:49:11;97773.20;;;9.18
70050;BMP180;57391;51.306;22.680;2023-04-01T01:51:39;97772.60;;;9.16
70050;BMP180;57391;51.306;22.680;2023-04-01T01:54:14;97777.20;;;9.20
70050;BMP180;57391;51.306;22.680;2023-04-01T01:56:48;97772.80;;;9.12
70050;BMP180;57391;51.306;22.680;2023-04-01T01:59:20;97767.20;;;9.10
70050;BMP180;57391;51.306;22.680;2023-04-01T02:01:51;97765.20;;;9.10
70050;BMP180;57391;51.306;22.680;2023-04-01T02:04:21;97764.40;;;9.10
70050;BMP180;57391;51.306;22.680;2023-04-01T02:07:02;97770.80;;;9.10
70050;BMP180;57391;51.306;22.680;2023-04-01T02:09:30;97761.20;;;9.10
70050;BMP180;57391;51.306;22.680;2023-04-01T02:12:05;97765.40;;;9.10
70050;BMP180;57391;51.306;22.680;2023-04-01T02:14:53;97749.00;;;9.10
70050;BMP180;57391;51.306;22.680;2023-04-01T02:17:24;97751.60;;;9.10
70050;BMP180;57391;51.306;22.680;2023-04-01T02:20:07;97758.60;;;9.10
70050;BMP180;57391;51.306;22.680;2023-04-01T02:22:44;97752.40;;;9.10
70050;BMP180;57391;51.306;22.680;2023-04-01T02:25:28;97753.20;;;9.10
70050;BMP180;57391;51.306;22.680;2023-04-01T02:27:58;97753.20;;;9.10
70050;BMP180;57391;51.306;22.680;2023-04-01T02:30:31;97750.60;;;9.10
70050;BMP180;57391;51.306;22.680;2023-04-01T02:33:01;97755.80;;;9.10
70050;BMP180;57391;51.306;22.680;2023-04-01T02:35:35;97755.80;;;9.12
70050;BMP180;57391;51.306;22.680;2023-04-01T02:38:03;97745.60;;;9.20
70050;BMP180;57391;51.306;22.680;2023-04-01T02:40:47;97740.00;;;9.20
70050;BMP180;57391;51.306;22.680;2023-04-01T02:43:14;97742.20;;;9.20
70050;BMP180;57391;51.306;22.680;2023-04-01T02:45:43;97748.00;;;9.20
70050;BMP180;57391;51.306;22.680;2023-04-01T02:48:10;97754.20;;;9.24
70050;BMP180;57391;51.306;22.680;2023-04-01T02:50:37;97751.60;;;9.30
70050;BMP180;57391;51.306;22.680;2023-04-01T02:53:05;97749.20;;;9.30
70050;BMP180;57391;51.306;22.680;2023-04-01T02:55:33;97742.40;;;9.30
70050;BMP180;57391;51.306;22.680;2023-04-01T02:58:01;97740.40;;;9.30
70050;BMP180;57391;51.306;22.680;2023-04-01T03:00:29;97749.00;;;9.30
70050;BMP180;57391;51.306;22.680;2023-04-01T03:02:57;97750.80;;;9.32
70050;BMP180;57391;51.306;22.680;2023-04-01T03:05:24;97754.40;;;9.34
70050;BMP180;57391;51.306;22.680;2023-04-01T03:07:51;97758.40;;;9.32
70050;BMP180;57391;51.306;22.680;2023-04-01T03:10:21;97757.60;;;9.38
70050;BMP180;57391;51.306;22.680;2023-04-01T03:12:48;97756.00;;;9.36
70050;BMP180;57391;51.306;22.680;2023-04-01T03:15:15;97757.20;;;9.38
70050;BMP180;57391;51.306;22.680;2023-04-01T03:17:43;97759.20;;;9.36
70050;BMP180;57391;51.306;22.680;2023-04-01T03:20:11;97762.00;;;9.36
70050;BMP180;57391;51.306;22.680;2023-04-01T03:22:38;97764.40;;;9.40
70050;BMP180;57391;51.306;22.680;2023-04-01T03:25:07;97759.80;;;9.40
70050;BMP180;57391;51.306;22.680;2023-04-01T03:27:35;97759.20;;;9.40
70050;BMP180;57391;51.306;22.680;2023-04-01T03:30:05;97758.40;;;9.40
70050;BMP180;57391;51.306;22.680;2023-04-01T03:32:34;97762.00;;;9.40
70050;BMP180;57391;51.306;22.680;2023-04-01T03:35:01;97760.20;;;9.40
70050;BMP180;57391;51.306;22.680;2023-04-01T03:37:29;97766.60;;;9.40
70050;BMP180;57391;51.306;22.680;2023-04-01T03:39:56;97772.80;;;9.40
70050;BMP180;57391;51.306;22.680;2023-04-01T03:42:23;97777.80;;;9.40
70050;BMP180;57391;51.306;22.680;2023-04-01T03:44:50;97782.20;;;9.40
70050;BMP180;57391;51.306;22.680;2023-04-01T03:47:18;97787.40;;;9.40
70050;BMP180;57391;51.306;22.680;2023-04-01T03:49:45;97791.40;;;9.40
70050;BMP180;57391;51.306;22.680;2023-04-01T03:52:12;97794.60;;;9.40
70050;BMP180;57391;51.306;22.680;2023-04-01T03:54:40;97798.80;;;9.32
70050;BMP180;57391;51.306;22.680;2023-04-01T03:57:07;97794.40;;;9.34
70050;BMP180;57391;51.306;22.680;2023-04-01T03:59:35;97795.00;;;9.34
70050;BMP180;57391;51.306;22.680;2023-04-01T04:02:03;97799.40;;;9.30
70050;BMP180;57391;51.306;22.680;2023-04-01T04:04:31;97805.20;;;9.30
70050;BMP180;57391;51.306;22.680;2023-04-01T04:06:59;97801.60;;;9.30
70050;BMP180;57391;51.306;22.680;2023-04-01T04:09:26;97800.60;;;9.30
70050;BMP180;57391;51.306;22.680;2023-04-01T04:11:54;97800.80;;;9.30
70050;BMP180;57391;51.306;22.680;2023-04-01T04:14:23;97803.00;;;9.30
70050;BMP180;57391;51.306;22.680;2023-04-01T04:16:51;97802.60;;;9.24
70050;BMP180;57391;51.306;22.680;2023-04-01T04:19:18;97803.80;;;9.26
70050;BMP180;57391;51.306;22.680;2023-04-01T04:21:45;97800.80;;;9.20
70050;BMP180;57391;51.306;22.680;2023-04-01T04:24:13;97801.80;;;9.20
70050;BMP180;57391;51.306;22.680;2023-04-01T04:26:59;97806.40;;;9.20
70050;BMP180;57391;51.306;22.680;2023-04-01T04:29:26;97803.60;;;9.20
70050;BMP180;57391;51.306;22.680;2023-04-01T04:31:54;97806.20;;;9.20
70050;BMP180;57391;51.306;22.680;2023-04-01T04:34:21;97804.60;;;9.20
70050;BMP180;57391;51.306;22.680;2023-04-01T04:36:49;97803.00;;;9.26
70050;BMP180;57391;51.306;22.680;2023-04-01T04:39:17;97807.80;;;9.28
70050;BMP180;57391;51.306;22.680;2023-04-01T04:41:45;97809.20;;;9.30
70050;BMP180;57391;51.306;22.680;2023-04-01T04:44:13;97805.40;;;9.30
70050;BMP180;57391;51.306;22.680;2023-04-01T04:46:40;97805.60;;;9.30
70050;BMP180;57391;51.306;22.680;2023-04-01T04:49:16;97803.20;;;9.30
70050;BMP180;57391;51.306;22.680;2023-04-01T04:51:44;97804.80;;;9.30
70050;BMP180;57391;51.306;22.680;2023-04-01T04:54:11;97805.60;;;9.30
70050;BMP180;57391;51.306;22.680;2023-04-01T04:56:46;97804.20;;;9.40
70050;BMP180;57391;51.306;22.680;2023-04-01T04:59:13;97804.00;;;9.40
70050;BMP180;57391;51.306;22.680;2023-04-01T05:01:45;97801.60;;;9.40
70050;BMP180;57391;51.306;22.680;2023-04-01T05:04:12;97804.00;;;9.40
70050;BMP180;57391;51.306;22.680;2023-04-01T05:06:39;97802.80;;;9.40
70050;BMP180;57391;51.306;22.680;2023-04-01T05:09:07;97803.80;;;9.40
70050;BMP180;57391;51.306;22.680;2023-04-01T05:11:34;97809.80;;;9.40
70050;BMP180;57391;51.306;22.680;2023-04-01T05:14:01;97807.20;;;9.48
70050;BMP180;57391;51.306;22.680;2023-04-01T05:16:29;97811.00;;;9.50
70050;BMP180;57391;51.306;22.680;2023-04-01T05:18:58;97811.00;;;9.50
70050;BMP180;57391;51.306;22.680;2023-04-01T05:21:25;97809.80;;;9.50
70050;BMP180;57391;51.306;22.680;2023-04-01T05:23:53;97808.60;;;9.50
70050;BMP180;57391;51.306;22.680;2023-04-01T05:26:20;97813.40;;;9.50
70050;BMP180;57391;51.306;22.680;2023-04-01T05:28:48;97809.20;;;9.58
70050;BMP180;57391;51.306;22.680;2023-04-01T05:31:15;97805.40;;;9.60
70050;BMP180;57391;51.306;22.680;2023-04-01T05:33:45;97809.40;;;9.60
70050;BMP180;57391;51.306;22.680;2023-04-01T05:36:15;97805.80;;;9.60
70050;BMP180;57391;51.306;22.680;2023-04-01T05:38:43;97809.40;;;9.60
70050;BMP180;57391;51.306;22.680;2023-04-01T05:41:14;97805.40;;;9.70
70050;BMP180;57391;51.306;22.680;2023-04-01T05:43:44;97804.40;;;9.70
70050;BMP180;57391;51.306;22.680;2023-04-01T05:46:34;97808.80;;;9.80
70050;BMP180;57391;51.306;22.680;2023-04-01T05:49:36;97809.20;;;9.80
70050;BMP180;57391;51.306;22.680;2023-04-01T05:52:04;97808.60;;;9.80
70050;BMP180;57391;51.306;22.680;2023-04-01T05:54:35;97809.00;;;9.88
70050;BMP180;57391;51.306;22.680;2023-04-01T05:57:10;97815.00;;;9.90
70050;BMP180;57391;51.306;22.680;2023-04-01T05:59:37;97808.20;;;9.90
70050;BMP180;57391;51.306;22.680;2023-04-01T06:02:05;97809.40;;;9.90
70050;BMP180;57391;51.306;22.680;2023-04-01T06:04:38;97810.40;;;9.90
70050;BMP180;57391;51.306;22.680;2023-04-01T06:07:15;97813.00;;;9.94
70050;BMP180;57391;51.306;22.680;2023-04-01T06:09:44;97811.20;;;10.00
70050;BMP180;57391;51.306;22.680;2023-04-01T06:15:37;97812.20;;;10.00
70050;BMP180;57391;51.306;22.680;2023-04-01T06:25:04;97819.80;;;10.10
70050;BMP180;57391;51.306;22.680;2023-04-01T06:30:53;97824.20;;;10.10
70050;BMP180;57391;51.306;22.680;2023-04-01T06:42:59;97830.60;;;10.30
70050;BMP180;57391;51.306;22.680;2023-04-01T06:46:32;97833.80;;;10.30
70050;BMP180;57391;51.306;22.680;2023-04-01T06:55:50;97836.60;;;10.44
70050;BMP180;57391;51.306;22.680;2023-04-01T07:01:32;97833.80;;;10.50
70050;BMP180;57391;51.306;22.680;2023-04-01T07:04:15;97832.60;;;10.60
70050;BMP180;57391;51.306;22.680;2023-04-01T07:06:58;97841.40;;;10.80
70050;BMP180;57391;51.306;22.680;2023-04-01T07:09:32;97845.20;;;11.10
70050;BMP180;57391;51.306;22.680;2023-04-01T07:12:38;97837.20;;;11.40
70050;BMP180;57391;51.306;22.680;2023-04-01T07:15:54;97843.40;;;11.80
70050;BMP180;57391;51.306;22.680;2023-04-01T07:18:32;97849.00;;;12.00
70050;BMP180;57391;51.306;22.680;2023-04-01T07:21:02;97854.40;;;12.20
70050;BMP180;57391;51.306;22.680;2023-04-01T07:23:42;97853.80;;;12.30
70050;BMP180;57391;51.306;22.680;2023-04-01T07:26:43;97857.80;;;12.40
70050;BMP180;57391;51.306;22.680;2023-04-01T07:29:14;97857.80;;;12.50
70050;BMP180;57391;51.306;22.680;2023-04-01T07:37:34;97856.20;;;12.56
70050;BMP180;57391;51.306;22.680;2023-04-01T07:43:01;97854.00;;;12.90
70050;BMP180;57391;51.306;22.680;2023-04-01T07:45:51;97854.20;;;13.08
70050;BMP180;57391;51.306;22.680;2023-04-01T07:48:33;97849.40;;;13.20
70050;BMP180;57391;51.306;22.680;2023-04-01T07:56:27;97855.40;;;13.76
70050;BMP180;57391;51.306;22.680;2023-04-01T08:05:19;97852.80;;;14.20
70050;BMP180;57391;51.306;22.680;2023-04-01T08:26:42;97861.80;;;15.00
70050;BMP180;57391;51.306;22.680;2023-04-01T08:29:19;97861.00;;;15.00
70050;BMP180;57391;51.306;22.680;2023-04-01T08:32:03;97862.20;;;14.90
70050;BMP180;57391;51.306;22.680;2023-04-01T08:34:43;97865.60;;;14.90
70050;BMP180;57391;51.306;22.680;2023-04-01T08:37:25;97862.00;;;14.90
70050;BMP180;57391;51.306;22.680;2023-04-01T08:40:35;97859.40;;;15.00
70050;BMP180;57391;51.306;22.680;2023-04-01T08:43:20;97856.00;;;15.10
70050;BMP180;57391;51.306;22.680;2023-04-01T09:00:38;97859.40;;;16.00
70050;BMP180;57391;51.306;22.680;2023-04-01T09:06:33;97862.20;;;16.10
70050;BMP180;57391;51.306;22.680;2023-04-01T09:25:43;97868.00;;;16.20
70050;BMP180;57391;51.306;22.680;2023-04-01T09:36:46;97857.20;;;16.10
70050;BMP180;57391;51.306;22.680;2023-04-01T09:39:36;97859.80;;;16.10
70050;BMP180;57391;51.306;22.680;2023-04-01T09:45:53;97869.20;;;16.50
70050;BMP180;57391;51.306;22.680;2023-04-01T09:51:43;97866.40;;;16.60
70050;BMP180;57391;51.306;22.680;2023-04-01T10:22:11;97878.60;;;15.46
70050;BMP180;57391;51.306;22.680;2023-04-01T10:28:35;97882.20;;;15.80
70050;BMP180;57391;51.306;22.680;2023-04-01T10:40:57;97879.00;;;15.70
70050;BMP180;57391;51.306;22.680;2023-04-01T10:47:00;97881.00;;;15.70
70050;BMP180;57391;51.306;22.680;2023-04-01T10:52:29;97879.20;;;15.70
70050;BMP180;57391;51.306;22.680;2023-04-01T11:11:39;97889.20;;;15.60
70050;BMP180;57391;51.306;22.680;2023-04-01T11:14:49;97886.20;;;15.50
70050;BMP180;57391;51.306;22.680;2023-04-01T11:23:27;97892.20;;;15.40
70050;BMP180;57391;51.306;22.680;2023-04-01T11:26:17;97898.00;;;15.40
70050;BMP180;57391;51.306;22.680;2023-04-01T11:35:29;97892.80;;;15.40
70050;BMP180;57391;51.306;22.680;2023-04-01T11:38:30;97890.00;;;15.42
70050;BMP180;57391;51.306;22.680;2023-04-01T11:45:18;97892.40;;;15.50
70050;BMP180;57391;51.306;22.680;2023-04-01T11:48:13;97894.60;;;15.54
70050;BMP180;57391;51.306;22.680;2023-04-01T12:48:21;97924.60;;;13.80
70050;BMP180;57391;51.306;22.680;2023-04-01T13:00:38;97933.20;;;13.20
70050;BMP180;57391;51.306;22.680;2023-04-01T13:06:23;97934.20;;;13.30
70050;BMP180;57391;51.306;22.680;2023-04-01T13:15:41;97937.20;;;14.40
70050;BMP180;57391;51.306;22.680;2023-04-01T13:22:01;97948.20;;;14.60
70050;BMP180;57391;51.306;22.680;2023-04-01T13:35:58;97949.00;;;14.40
70050;BMP180;57391;51.306;22.680;2023-04-01T13:41:01;97944.80;;;14.50
70050;BMP180;57391;51.306;22.680;2023-04-01T13:46:41;97946.80;;;14.60
70050;BMP180;57391;51.306;22.680;2023-04-01T14:04:23;97955.00;;;14.50
70050;BMP180;57391;51.306;22.680;2023-04-01T14:07:12;97961.00;;;14.50
70050;BMP180;57391;51.306;22.680;2023-04-01T14:13:30;97959.60;;;14.50
70050;BMP180;57391;51.306;22.680;2023-04-01T14:16:34;97960.80;;;14.50
70050;BMP180;57391;51.306;22.680;2023-04-01T14:22:42;97966.80;;;14.40
70050;BMP180;57391;51.306;22.680;2023-04-01T14:26:00;97979.20;;;14.30
70050;BMP180;57391;51.306;22.680;2023-04-01T14:28:40;97981.00;;;14.00
70050;BMP180;57391;51.306;22.680;2023-04-01T14:31:27;97975.60;;;13.80
70050;BMP180;57391;51.306;22.680;2023-04-01T14:49:04;97969.80;;;12.90
70050;BMP180;57391;51.306;22.680;2023-04-01T14:51:41;97978.40;;;12.88
70050;BMP180;57391;51.306;22.680;2023-04-01T14:54:17;97978.00;;;12.80
70050;BMP180;57391;51.306;22.680;2023-04-01T14:57:18;97978.20;;;12.80
70050;BMP180;57391;51.306;22.680;2023-04-01T15:00:00;97978.20;;;12.80
70050;BMP180;57391;51.306;22.680;2023-04-01T15:03:09;97973.60;;;12.80
70050;BMP180;57391;51.306;22.680;2023-04-01T15:11:35;97979.80;;;12.60
70050;BMP180;57391;51.306;22.680;2023-04-01T15:38:48;97983.60;;;12.40
70050;BMP180;57391;51.306;22.680;2023-04-01T15:44:02;97985.20;;;12.40
70050;BMP180;57391;51.306;22.680;2023-04-01T15:46:46;97983.60;;;12.40
70050;BMP180;57391;51.306;22.680;2023-04-01T15:49:43;97981.80;;;12.40
70050;BMP180;57391;51.306;22.680;2023-04-01T15:52:24;97986.60;;;12.40
70050;BMP180;57391;51.306;22.680;2023-04-01T15:55:39;97992.60;;;12.40
70050;BMP180;57391;51.306;22.680;2023-04-01T16:01:25;98000.80;;;12.40
70050;BMP180;57391;51.306;22.680;2023-04-01T16:13:14;98012.40;;;12.30
70050;BMP180;57391;51.306;22.680;2023-04-01T16:19:12;98022.00;;;12.20
70050;BMP180;57391;51.306;22.680;2023-04-01T16:25:14;98022.80;;;12.10
70050;BMP180;57391;51.306;22.680;2023-04-01T16:30:57;98034.00;;;12.00
70050;BMP180;57391;51.306;22.680;2023-04-01T16:36:33;98032.20;;;11.90
70050;BMP180;57391;51.306;22.680;2023-04-01T16:45:45;98045.00;;;11.80
70050;BMP180;57391;51.306;22.680;2023-04-01T16:48:20;98047.60;;;11.70
70050;BMP180;57391;51.306;22.680;2023-04-01T16:50:59;98055.20;;;11.70
70050;BMP180;57391;51.306;22.680;2023-04-01T16:53:42;98059.00;;;11.70
70050;BMP180;57391;51.306;22.680;2023-04-01T16:56:23;98058.80;;;11.64
70050;BMP180;57391;51.306;22.680;2023-04-01T17:02:10;98066.80;;;11.60
70050;BMP180;57391;51.306;22.680;2023-04-01T17:04:59;98072.00;;;11.60
70050;BMP180;57391;51.306;22.680;2023-04-01T17:13:41;98077.40;;;11.50
70050;BMP180;57391;51.306;22.680;2023-04-01T17:20:01;98076.80;;;11.48
70050;BMP180;57391;51.306;22.680;2023-04-01T17:43:25;98086.20;;;11.30
70050;BMP180;57391;51.306;22.680;2023-04-01T17:46:07;98086.80;;;11.30
70050;BMP180;57391;51.306;22.680;2023-04-01T18:06:34;98107.60;;;11.20
70050;BMP180;57391;51.306;22.680;2023-04-01T18:14:41;98121.00;;;11.10
70050;BMP180;57391;51.306;22.680;2023-04-01T18:21:13;98123.20;;;11.00
70050;BMP180;57391;51.306;22.680;2023-04-01T18:23:55;98126.60;;;11.00
70050;BMP180;57391;51.306;22.680;2023-04-01T18:26:32;98127.80;;;11.00
70050;BMP180;57391;51.306;22.680;2023-04-01T18:29:54;98135.00;;;10.90
70050;BMP180;57391;51.306;22.680;2023-04-01T18:32:35;98135.20;;;10.90
70050;BMP180;57391;51.306;22.680;2023-04-01T18:35:58;98138.20;;;10.90
70050;BMP180;57391;51.306;22.680;2023-04-01T18:38:36;98136.80;;;10.90
70050;BMP180;57391;51.306;22.680;2023-04-01T18:41:36;98137.40;;;10.88
70050;BMP180;57391;51.306;22.680;2023-04-01T18:44:25;98137.00;;;10.80
70050;BMP180;57391;51.306;22.680;2023-04-01T18:51:01;98141.20;;;10.80
70050;BMP180;57391;51.306;22.680;2023-04-01T18:53:55;98138.20;;;10.80
70050;BMP180;57391;51.306;22.680;2023-04-01T18:56:40;98142.20;;;10.80
70050;BMP180;57391;51.306;22.680;2023-04-01T18:59:43;98142.00;;;10.80
70050;BMP180;57391;51.306;22.680;2023-04-01T19:02:39;98142.60;;;10.80
70050;BMP180;57391;51.306;22.680;2023-04-01T19:05:18;98147.20;;;10.70
70050;BMP180;57391;51.306;22.680;2023-04-01T19:07:53;98142.20;;;10.70
70050;BMP180;57391;51.306;22.680;2023-04-01T19:10:41;98146.00;;;10.70
70050;BMP180;57391;51.306;22.680;2023-04-01T19:14:01;98147.20;;;10.70
70050;BMP180;57391;51.306;22.680;2023-04-01T19:25:36;98160.00;;;10.60
70050;BMP180;57391;51.306;22.680;2023-04-01T19:28:34;98162.20;;;10.58
70050;BMP180;57391;51.306;22.680;2023-04-01T19:34:45;98166.20;;;10.58
70050;BMP180;57391;51.306;22.680;2023-04-01T19:42:57;98173.80;;;10.56
70050;BMP180;57391;51.306;22.680;2023-04-01T19:52:36;98181.40;;;10.56
70050;BMP180;57391;51.306;22.680;2023-04-01T20:01:01;98186.80;;;10.50
70050;BMP180;57391;51.306;22.680;2023-04-01T20:11:55;98198.20;;;10.40
70050;BMP180;57391;51.306;22.680;2023-04-01T20:14:40;98203.20;;;10.40
70050;BMP180;57391;51.306;22.680;2023-04-01T20:17:18;98204.80;;;10.38
70050;BMP180;57391;51.306;22.680;2023-04-01T20:26:06;98206.20;;;10.30
70050;BMP180;57391;51.306;22.680;2023-04-01T20:33:46;98214.20;;;10.30
70050;BMP180;57391;51.306;22.680;2023-04-01T20:39:39;98219.40;;;10.30
70050;BMP180;57391;51.306;22.680;2023-04-01T20:49:27;98229.00;;;10.28
70050;BMP180;57391;51.306;22.680;2023-04-01T20:57:57;98243.40;;;10.24
70050;BMP180;57391;51.306;22.680;2023-04-01T21:01:11;98239.60;;;10.20
70050;BMP180;57391;51.306;22.680;2023-04-01T21:10:39;98248.60;;;10.24
70050;BMP180;57391;51.306;22.680;2023-04-01T21:13:21;98252.40;;;10.22
70050;BMP180;57391;51.306;22.680;2023-04-01T21:16:15;98256.40;;;10.22
70050;BMP180;57391;51.306;22.680;2023-04-01T21:24:39;98264.40;;;10.30
70050;BMP180;57391;51.306;22.680;2023-04-01T21:27:23;98264.00;;;10.30
70050;BMP180;57391;51.306;22.680;2023-04-01T21:34:03;98270.40;;;10.30
70050;BMP180;57391;51.306;22.680;2023-04-01T21:54:35;98285.60;;;10.36
70050;BMP180;57391;51.306;22.680;2023-04-01T22:00:17;98290.40;;;10.40
70050;BMP180;57391;51.306;22.680;2023-04-01T22:09:12;98299.40;;;10.32
70050;BMP180;57391;51.306;22.680;2023-04-01T22:11:59;98302.80;;;10.30
70050;BMP180;57391;51.306;22.680;2023-04-01T22:14:43;98304.60;;;10.20
70050;BMP180;57391;51.306;22.680;2023-04-01T22:23:47;98313.20;;;10.00
70050;BMP180;57391;51.306;22.680;2023-04-01T22:30:27;98311.00;;;9.80
70050;BMP180;57391;51.306;22.680;2023-04-01T22:44:02;98328.60;;;9.40
70050;BMP180;57391;51.306;22.680;2023-04-01T22:49:28;98333.00;;;9.30
70050;BMP180;57391;51.306;22.680;2023-04-01T22:58:21;98337.80;;;9.20
70050;BMP180;57391;51.306;22.680;2023-04-01T23:01:29;98341.20;;;9.10
70050;BMP180;57391;51.306;22.680;2023-04-01T23:03:59;98339.80;;;9.10
70050;BMP180;57391;51.306;22.680;2023-04-01T23:06:39;98338.20;;;9.00
70050;BMP180;57391;51.306;22.680;2023-04-01T23:09:31;98342.60;;;9.00
70050;BMP180;57391;51.306;22.680;2023-04-01T23:12:13;98339.20;;;8.90
70050;BMP180;57391;51.306;22.680;2023-04-01T23:14:56;98340.40;;;8.90
70050;BMP180;57391;51.306;22.680;2023-04-01T23:17:49;98343.80;;;8.90
70050;BMP180;57391;51.306;22.680;2023-04-01T23:23:45;98348.20;;;8.88
70050;BMP180;57391;51.306;22.680;2023-04-01T23:26:21;98353.00;;;8.82
70050;BMP180;57391;51.306;22.680;2023-04-01T23:28:56;98358.60;;;8.80
70050;BMP180;57391;51.306;22.680;2023-04-01T23:36:53;98367.80;;;8.80
70050;BMP180;57391;51.306;22.680;2023-04-01T23:39:38;98365.60;;;8.70
70050;BMP180;57391;51.306;22.680;2023-04-01T23:42:18;98371.80;;;8.70
70050;BMP180;57391;51.306;22.680;2023-04-01T23:44:49;98377.20;;;8.60
70050;BMP180;57391;51.306;22.680;2023-04-01T23:47:23;98382.60;;;8.60
70050;BMP180;57391;51.306;22.680;2023-04-01T23:52:40;98387.60;;;8.50
70050;BMP180;57391;51.306;22.680;2023-04-01T23:57:38;98394.40;;;8.50
